Time;durP1;ratioP1;P1;durP2;ratioP2;P2;SDS_P1;SDS_P2;PMS_P1;PMS_P2;Temp;Humidity;BMP_temperature;BMP_pressure;BME280_temperature;BME280_humidity;BME280_pressure;Samples;Min_cycle;Max_cycle;Signal;HPM_P1;HPM_P2
2024/01/11 00:02:09;;;;;;;0.60;0.60;;;;;;;-8.49;100.00;100419.19;5112712;28;20443;-59
2024/01/11 00:04:37;;;;;;;0.20;0.20;;;;;;;-8.47;100.00;100416.75;5112813;28;20538;-60
2024/01/11 00:07:04;;;;;;;0.10;0.10;;;;;;;-8.45;100.00;100412.69;5112433;28;20494;-60
2024/01/11 00:09:31;;;;;;;0.20;0.20;;;;;;;-8.28;100.00;100418.03;5112594;28;20446;-60
2024/01/11 00:11:58;;;;;;;0.30;0.30;;;;;;;-8.35;100.00;100418.66;5112240;28;20848;-60
2024/01/11 00:14:24;;;;;;;0.83;0.40;;;;;;;-8.48;100.00;100420.88;5112068;28;20451;-60
2024/01/11 00:16:50;;;;;;;0.10;0.10;;;;;;;-8.55;100.00;100411.59;5112145;28;20817;-60
2024/01/11 00:19:17;;;;;;;0.30;0.30;;;;;;;-8.56;100.00;100412.38;5112199;28;20450;-60
2024/01/11 00:21:45;;;;;;;0.20;0.20;;;;;;;-8.59;100.00;100412.31;5112018;28;20196;-60
2024/01/11 00:24:12;;;;;;;0.10;0.10;;;;;;;-8.52;100.00;100414.16;5111943;28;20442;-60
2024/01/11 00:26:39;;;;;;;0.63;0.63;;;;;;;-8.53;100.00;100411.63;5111875;28;20809;-60
2024/01/11 00:29:05;;;;;;;0.10;0.10;;;;;;;-8.55;100.00;100404.16;5112142;28;20447;-60
2024/01/11 00:31:32;;;;;;;0.47;0.47;;;;;;;-8.54;100.00;100400.88;5111929;28;20865;-60
2024/01/11 00:33:59;;;;;;;0.10;0.10;;;;;;;-8.62;100.00;100399.00;5111816;28;20455;-60
2024/01/11 00:36:26;;;;;;;0.10;0.10;;;;;;;-8.67;100.00;100393.91;5112118;28;20447;-60
2024/01/11 00:38:54;;;;;;;0.90;0.90;;;;;;;-8.74;100.00;100387.13;5111680;28;20989;-60
2024/01/11 00:41:21;;;;;;;0.20;0.20;;;;;;;-8.76;100.00;100388.72;5111693;28;20443;-60
2024/01/11 00:43:48;;;;;;;0.43;0.27;;;;;;;-8.76;100.00;100383.75;5111751;28;20446;-60
2024/01/11 00:46:15;;;;;;;0.13;0.13;;;;;;;-8.78;100.00;100387.84;5111521;28;20454;-59
2024/01/11 00:48:41;;;;;;;1.27;0.57;;;;;;;-8.88;100.00;100377.66;5111445;28;20497;-60
2024/01/11 00:51:08;;;;;;;0.57;0.43;;;;;;;-8.83;100.00;100376.97;5111623;28;20459;-60
2024/01/11 00:53:35;;;;;;;0.10;0.10;;;;;;;-8.86;100.00;100376.88;5111839;28;20450;-59
2024/01/11 00:56:04;;;;;;;0.17;0.17;;;;;;;-8.90;100.00;100374.31;5111663;28;20479;-60
2024/01/11 00:58:30;;;;;;;0.23;0.23;;;;;;;-8.92;100.00;100377.56;5111486;28;20462;-60
2024/01/11 01:00:57;;;;;;;0.10;0.10;;;;;;;-8.88;100.00;100375.19;5111228;28;20450;-59
2024/01/11 01:03:24;;;;;;;0.10;0.10;;;;;;;-8.87;100.00;100366.16;5111211;27;20975;-60
2024/01/11 01:05:51;;;;;;;0.10;0.10;;;;;;;-8.95;100.00;100368.41;5111110;28;20455;-59
2024/01/11 01:08:17;;;;;;;0.10;0.10;;;;;;;-8.99;100.00;100355.88;5110938;28;20852;-59
2024/01/11 01:10:44;;;;;;;0.10;0.10;;;;;;;-8.99;100.00;100364.16;5111132;28;20451;-60
2024/01/11 01:13:12;;;;;;;0.33;0.33;;;;;;;-8.93;100.00;100351.09;5111087;28;20458;-60
2024/01/11 01:15:39;;;;;;;1.70;0.33;;;;;;;-8.93;100.00;100347.00;5110995;28;20470;-60
2024/01/11 01:18:06;;;;;;;0.20;0.20;;;;;;;-8.98;100.00;100343.53;5111218;28;20451;-60
2024/01/11 01:20:33;;;;;;;0.10;0.10;;;;;;;-8.98;100.00;100343.53;5110876;28;20450;-60
2024/01/11 01:23:00;;;;;;;0.20;0.20;;;;;;;-8.93;100.00;100347.00;5110819;28;20641;-60
2024/01/11 01:25:27;;;;;;;0.17;0.17;;;;;;;-9.03;100.00;100345.06;5110949;28;20451;-60
2024/01/11 01:27:53;;;;;;;0.20;0.20;;;;;;;-8.95;100.00;100338.66;5110646;28;21039;-60
2024/01/11 01:30:23;;;;;;;0.47;0.37;;;;;;;-8.82;100.00;100338.97;5111064;28;20458;-60
2024/01/11 01:32:50;;;;;;;0.30;0.30;;;;;;;-8.72;100.00;100331.00;5110629;27;20451;-60
2024/01/11 01:35:17;;;;;;;0.20;0.20;;;;;;;-8.62;100.00;100322.16;5110589;28;20446;-60
2024/01/11 01:37:44;;;;;;;0.20;0.20;;;;;;;-8.56;100.00;100323.13;5110733;28;20443;-60
2024/01/11 01:40:12;;;;;;;0.60;0.60;;;;;;;-8.58;100.00;100322.28;5110566;28;21381;-60
2024/01/11 01:42:43;;;;;;;0.20;0.20;;;;;;;-8.55;100.00;100312.44;5110295;28;20967;-59
2024/01/11 01:45:10;;;;;;;0.20;0.20;;;;;;;-8.51;100.00;100313.34;5110052;28;20447;-59
2024/01/11 01:47:41;;;;;;;0.10;0.10;;;;;;;-8.45;100.00;100321.75;5110292;28;20495;-60
2024/01/11 01:50:09;;;;;;;0.10;0.10;;;;;;;-8.47;100.00;100317.56;5110553;28;20481;-59
2024/01/11 01:52:37;;;;;;;0.10;0.10;;;;;;;-8.46;100.00;100314.31;5110314;28;20474;-60
2024/01/11 01:55:06;;;;;;;0.30;0.30;;;;;;;-8.56;100.00;100318.16;5110667;28;20439;-60
2024/01/11 01:57:35;;;;;;;0.97;0.93;;;;;;;-8.62;100.00;100317.19;5110318;28;20442;-60
2024/01/11 02:00:03;;;;;;;0.10;0.10;;;;;;;-8.72;100.00;100311.19;5110417;28;20457;-60
2024/01/11 02:02:31;;;;;;;0.33;0.33;;;;;;;-8.70;100.00;100305.44;5110063;28;20447;-60
2024/01/11 02:04:59;;;;;;;0.63;0.63;;;;;;;-8.63;100.00;100303.97;5110007;28;20891;-60
2024/01/11 02:07:26;;;;;;;0.10;0.10;;;;;;;-8.69;100.00;100301.34;5109850;28;20495;-60
2024/01/11 02:09:53;;;;;;;0.10;0.10;;;;;;;-8.68;100.00;100303.00;5110107;28;20443;-59
2024/01/11 02:12:21;;;;;;;0.60;0.60;;;;;;;-8.74;100.00;100302.84;5110042;28;21061;-60
2024/01/11 02:14:48;;;;;;;2.10;0.93;;;;;;;-8.69;100.00;100292.25;5109812;28;20447;-60
2024/01/11 02:17:14;;;;;;;0.00;0.00;;;;;;;-8.55;100.00;100295.06;5109768;28;20855;-59
2024/01/11 02:19:41;;;;;;;0.10;0.10;;;;;;;-8.62;100.00;100293.22;5110107;28;20887;-60
2024/01/11 02:22:17;;;;;;;0.30;0.30;;;;;;;-8.67;100.00;100282.34;5110234;28;20443;-59
2024/01/11 02:24:45;;;;;;;0.20;0.20;;;;;;;-8.66;100.00;100281.56;5109787;28;20451;-60
2024/01/11 02:27:12;;;;;;;0.17;0.17;;;;;;;-8.63;100.00;100275.84;5109580;28;20462;-60
2024/01/11 02:29:38;;;;;;;0.30;0.30;;;;;;;-8.66;100.00;100271.66;5109817;28;20467;-60
2024/01/11 02:32:06;;;;;;;0.67;0.67;;;;;;;-8.66;100.00;100276.63;5109809;28;20447;-60
2024/01/11 02:34:33;;;;;;;0.10;0.10;;;;;;;-8.61;100.00;100276.72;5109921;27;20444;-59
2024/01/11 02:37:01;;;;;;;0.20;0.20;;;;;;;-8.56;100.00;100278.50;5109516;28;20442;-60
2024/01/11 02:39:28;;;;;;;0.10;0.10;;;;;;;-8.53;100.00;100276.09;5109273;28;20455;-59
2024/01/11 02:41:58;;;;;;;0.10;0.10;;;;;;;-8.47;100.00;100278.72;5109270;28;20454;-60
2024/01/11 02:44:24;;;;;;;0.20;0.20;;;;;;;-8.34;100.00;100276.53;5109332;28;20447;-59
2024/01/11 02:46:51;;;;;;;0.10;0.10;;;;;;;-8.28;100.00;100269.22;5109175;28;20439;-60
2024/01/11 02:49:18;;;;;;;0.10;0.10;;;;;;;-8.26;100.00;100267.59;5109357;28;20490;-60
2024/01/11 02:51:45;;;;;;;0.10;0.10;;;;;;;-8.25;100.00;100265.16;5109060;28;20462;-59
2024/01/11 02:54:12;;;;;;;0.23;0.23;;;;;;;-8.32;100.00;100262.50;5109193;28;20454;-59
2024/01/11 02:56:39;;;;;;;0.20;0.20;;;;;;;-8.51;100.00;100263.75;5108735;28;20879;-59
2024/01/11 02:59:07;;;;;;;0.50;0.50;;;;;;;-8.54;100.00;100267.00;5108859;28;20443;-60
2024/01/11 03:01:34;;;;;;;0.63;0.63;;;;;;;-8.54;100.00;100256.25;5109297;28;20478;-60
2024/01/11 03:04:01;;;;;;;0.10;0.10;;;;;;;-8.46;100.00;100265.53;5109152;28;20454;-59
2024/01/11 03:06:28;;;;;;;0.40;0.40;;;;;;;-8.41;100.00;100259.84;5108935;28;20459;-60
2024/01/11 03:08:54;;;;;;;0.33;0.33;;;;;;;-8.46;100.00;100260.56;5109196;28;20506;-60
2024/01/11 03:11:21;;;;;;;0.37;0.37;;;;;;;-8.45;100.00;100257.28;5108924;28;20474;-60
2024/01/11 03:13:48;;;;;;;0.20;0.20;;;;;;;-8.45;100.00;100246.53;5108940;28;20450;-60
2024/01/11 03:16:16;;;;;;;0.10;0.10;;;;;;;-8.51;100.00;100251.34;5108637;28;20450;-60
2024/01/11 03:18:43;;;;;;;0.40;0.40;;;;;;;-8.63;100.00;100249.41;5109032;28;20447;-59
2024/01/11 03:21:10;;;;;;;0.10;0.10;;;;;;;-8.83;100.00;100240.66;5108959;28;20450;-60
2024/01/11 03:23:36;;;;;;;0.10;0.10;;;;;;;-8.88;100.00;100236.41;5108951;28;20447;-59
2024/01/11 03:26:04;;;;;;;1.17;1.07;;;;;;;-8.91;100.00;100236.34;5108866;28;20458;-60
2024/01/11 03:28:31;;;;;;;2.53;1.03;;;;;;;-8.99;100.00;100237.78;5109025;28;20491;-60
2024/01/11 03:30:58;;;;;;;1.20;1.17;;;;;;;-9.04;100.00;100228.59;5108648;28;20452;-60
2024/01/11 03:33:26;;;;;;;0.30;0.30;;;;;;;-9.14;100.00;100222.56;5109026;28;20821;-60
2024/01/11 03:35:53;;;;;;;0.20;0.20;;;;;;;-9.19;100.00;100229.00;5108852;28;20628;-60
2024/01/11 03:38:19;;;;;;;0.53;0.53;;;;;;;-9.19;100.00;100221.59;5108759;28;20447;-59
2024/01/11 03:40:46;;;;;;;0.23;0.23;;;;;;;-9.26;100.00;100219.75;5108654;28;20840;-59
2024/01/11 03:43:13;;;;;;;0.10;0.10;;;;;;;-9.31;100.00;100214.69;5109001;28;20836;-60
2024/01/11 03:45:40;;;;;;;0.20;0.20;;;;;;;-9.32;100.00;100214.66;5108900;28;20439;-59
2024/01/11 03:48:07;;;;;;;0.30;0.30;;;;;;;-9.19;100.00;100214.16;5108721;28;20490;-60
2024/01/11 03:50:35;;;;;;;0.43;0.43;;;;;;;-9.13;100.00;100211.88;5108652;28;20454;-60
2024/01/11 03:53:03;;;;;;;0.10;0.10;;;;;;;-9.04;100.00;100209.59;5108575;28;20455;-59
2024/01/11 03:55:29;;;;;;;0.20;0.20;;;;;;;-8.98;100.00;100208.94;5108592;28;20489;-60
2024/01/11 03:57:56;;;;;;;0.30;0.30;;;;;;;-8.93;100.00;100210.72;5108666;28;20447;-60
2024/01/11 04:00:23;;;;;;;0.20;0.20;;;;;;;-8.98;100.00;100202.31;5108353;28;20979;-59
2024/01/11 04:02:50;;;;;;;0.10;0.10;;;;;;;-8.92;100.00;100204.13;5108457;28;20835;-60
2024/01/11 04:05:16;;;;;;;0.30;0.30;;;;;;;-8.86;100.00;100198.47;5108688;28;20458;-59
2024/01/11 04:07:45;;;;;;;0.10;0.10;;;;;;;-8.90;100.00;100203.34;5108490;28;20968;-60
2024/01/11 04:10:12;;;;;;;1.10;0.53;;;;;;;-8.85;100.00;100200.13;5111993;28;20821;-60
2024/01/11 04:12:38;;;;;;;0.10;0.10;;;;;;;-8.80;100.00;100198.63;5112610;28;20451;-59
2024/01/11 04:15:06;;;;;;;1.17;0.97;;;;;;;-8.80;100.00;100203.56;5112358;28;20451;-59
2024/01/11 04:17:33;;;;;;;0.20;0.20;;;;;;;-8.80;100.00;100189.53;5112173;28;20917;-60
2024/01/11 04:20:00;;;;;;;0.40;0.40;;;;;;;-8.84;100.00;100191.88;5112112;28;20438;-59
2024/01/11 04:22:28;;;;;;;0.20;0.20;;;;;;;-9.00;100.00;100186.56;5112246;28;20453;-59
2024/01/11 04:24:57;;;;;;;0.20;0.20;;;;;;;-9.12;100.00;100186.28;5112060;28;20995;-59
2024/01/11 04:27:23;;;;;;;0.30;0.30;;;;;;;-9.09;100.00;100186.34;5111882;28;20955;-59
2024/01/11 04:29:50;;;;;;;0.60;0.60;;;;;;;-9.11;100.00;100183.00;5112015;28;20534;-60
2024/01/11 04:32:17;;;;;;;0.30;0.30;;;;;;;-9.14;100.00;100173.00;5112013;28;20447;-59
2024/01/11 04:34:44;;;;;;;0.40;0.40;;;;;;;-9.12;100.00;100169.78;5112163;28;20443;-60
2024/01/11 04:37:11;;;;;;;0.50;0.50;;;;;;;-9.05;100.00;100168.28;5111965;28;20443;-59
2024/01/11 04:39:37;;;;;;;0.10;0.10;;;;;;;-9.11;100.00;100163.19;5111795;28;20447;-60
2024/01/11 04:42:06;;;;;;;1.20;0.63;;;;;;;-9.13;100.00;100164.81;5111992;28;20462;-59
2024/01/11 04:44:33;;;;;;;0.10;0.10;;;;;;;-9.23;100.00;100163.72;5111788;27;20899;-60
2024/01/11 04:46:59;;;;;;;0.13;0.13;;;;;;;-9.24;100.00;100166.16;5111847;28;20447;-60
2024/01/11 04:49:26;;;;;;;0.77;0.77;;;;;;;-9.39;100.00;100154.25;5111559;28;20494;-59
2024/01/11 04:51:53;;;;;;;0.23;0.23;;;;;;;-9.37;100.00;100160.06;5111549;28;20462;-60
2024/01/11 04:54:20;;;;;;;0.20;0.20;;;;;;;-9.43;100.00;100159.91;5111637;28;20451;-60
2024/01/11 04:56:46;;;;;;;0.87;0.87;;;;;;;-9.47;100.00;100159.00;5111769;28;20439;-59
2024/01/11 04:59:15;;;;;;;0.13;0.13;;;;;;;-9.56;100.00;100148.84;5111510;28;20439;-60
2024/01/11 05:01:42;;;;;;;0.10;0.10;;;;;;;-9.61;100.00;100151.19;5111197;28;20842;-60
2024/01/11 05:04:10;;;;;;;0.40;0.40;;;;;;;-9.65;100.00;100143.69;5111360;28;20483;-60
2024/01/11 05:06:37;;;;;;;0.37;0.37;;;;;;;-9.58;100.00;100140.53;5111551;28;20447;-60
2024/01/11 05:09:04;;;;;;;0.57;0.30;;;;;;;-9.57;100.00;100137.25;5111352;28;20494;-60
2024/01/11 05:11:31;;;;;;;0.30;0.30;;;;;;;-9.65;100.00;100133.78;5111136;28;20509;-59
2024/01/11 05:13:58;;;;;;;0.30;0.30;;;;;;;-9.69;100.00;100132.00;5111055;28;20956;-60
2024/01/11 05:16:27;;;;;;;0.68;0.68;;;;;;;-9.60;100.00;100129.75;5110745;28;20458;-60
2024/01/11 05:18:55;;;;;;;0.67;0.67;;;;;;;-9.54;100.00;100131.56;5111019;28;20201;-59
2024/01/11 05:21:22;;;;;;;0.10;0.10;;;;;;;-9.46;100.00;100138.38;5109979;28;20447;-59
2024/01/11 05:23:49;;;;;;;0.30;0.30;;;;;;;-9.49;100.00;100130.88;5111082;28;20452;-60
2024/01/11 05:26:17;;;;;;;0.10;0.10;;;;;;;-9.47;100.00;100129.28;5110765;28;20471;-59
2024/01/11 05:28:44;;;;;;;0.20;0.20;;;;;;;-9.39;100.00;100127.00;5111032;28;20905;-59
2024/01/11 05:31:12;;;;;;;0.73;0.73;;;;;;;-9.41;100.00;100126.97;5111016;28;20443;-59
2024/01/11 05:33:41;;;;;;;0.43;0.43;;;;;;;-9.44;100.00;100119.47;5110839;28;20472;-60
2024/01/11 05:36:08;;;;;;;0.10;0.10;;;;;;;-9.46;100.00;100106.19;5111080;28;20849;-59
2024/01/11 05:38:35;;;;;;;0.30;0.30;;;;;;;-9.41;100.00;100109.63;5110833;28;20447;-60
2024/01/11 05:41:02;;;;;;;0.10;0.10;;;;;;;-9.36;100.00;100113.06;5110503;28;20450;-59
2024/01/11 05:43:29;;;;;;;0.33;0.33;;;;;;;-9.38;100.00;100114.66;5110550;28;20995;-59
2024/01/11 05:45:56;;;;;;;0.20;0.20;;;;;;;-9.46;100.00;100116.09;5110688;28;20447;-60
2024/01/11 05:48:23;;;;;;;0.10;0.10;;;;;;;-9.47;100.00;100114.44;5110397;28;20443;-59
2024/01/11 05:50:52;;;;;;;0.20;0.20;;;;;;;-9.47;100.00;100113.59;5110535;28;20517;-59
2024/01/11 05:53:20;;;;;;;0.60;0.60;;;;;;;-9.45;100.00;100107.91;5110100;28;20444;-60
2024/01/11 05:55:47;;;;;;;0.10;0.10;;;;;;;-9.33;100.00;100106.53;5110279;28;20875;-60
2024/01/11 05:58:14;;;;;;;0.33;0.33;;;;;;;-9.31;100.00;100103.25;5110146;28;20956;-59
2024/01/11 06:00:41;;;;;;;1.10;1.10;;;;;;;-9.35;100.00;100099.88;5110701;28;20458;-59
2024/01/11 06:03:08;;;;;;;0.30;0.30;;;;;;;-9.43;100.00;100105.44;5110499;27;20453;-59
2024/01/11 06:05:35;;;;;;;0.73;0.60;;;;;;;-9.41;100.00;100089.81;5110443;28;20454;-59
2024/01/11 06:08:04;;;;;;;0.33;0.30;;;;;;;-9.44;100.00;100097.19;5110092;28;20914;-59
2024/01/11 06:10:31;;;;;;;0.77;0.77;;;;;;;-9.38;100.00;100097.31;5109795;28;20494;-59
2024/01/11 06:12:58;;;;;;;0.20;0.20;;;;;;;-9.38;100.00;100094.84;5109995;28;20648;-59
2024/01/11 06:15:25;;;;;;;0.10;0.10;;;;;;;-9.22;100.00;100095.22;5109736;28;21003;-59
2024/01/11 06:17:51;;;;;;;0.10;0.10;;;;;;;-9.16;100.00;100098.69;5109908;28;20451;-59
2024/01/11 06:20:18;;;;;;;0.70;0.47;;;;;;;-9.11;100.00;100098.78;5109900;28;20443;-59
2024/01/11 06:22:45;;;;;;;1.50;1.40;;;;;;;-9.04;100.00;100094.81;5110110;28;20940;-59
2024/01/11 06:25:13;;;;;;;0.10;0.10;;;;;;;-9.06;100.00;100097.25;5110085;28;20450;-60
2024/01/11 06:27:40;;;;;;;0.10;0.10;;;;;;;-8.92;100.00;100086.00;5110025;28;20571;-60
2024/01/11 06:30:08;;;;;;;0.50;0.50;;;;;;;-8.77;100.00;100094.59;5109792;28;20493;-60
2024/01/11 06:32:35;;;;;;;0.20;0.20;;;;;;;-8.66;100.00;100090.72;5109828;28;20443;-60
2024/01/11 06:35:02;;;;;;;0.43;0.43;;;;;;;-8.80;100.00;100089.56;5109545;28;20462;-60
2024/01/11 06:37:29;;;;;;;0.30;0.30;;;;;;;-8.85;100.00;100086.97;5109769;28;20484;-59
2024/01/11 06:39:56;;;;;;;0.60;0.60;;;;;;;-8.65;100.00;100084.94;5109683;28;20451;-59
2024/01/11 06:42:24;;;;;;;0.27;0.27;;;;;;;-8.56;100.00;100089.25;5109640;28;20447;-59
2024/01/11 06:44:51;;;;;;;1.07;0.50;;;;;;;-8.44;100.00;100090.34;5109626;28;20431;-60
2024/01/11 06:47:18;;;;;;;0.27;0.27;;;;;;;-8.34;100.00;100093.00;5109841;28;20443;-60
2024/01/11 06:49:46;;;;;;;0.10;0.10;;;;;;;-8.18;100.00;100082.53;5109547;28;20483;-59
2024/01/11 06:52:13;;;;;;;0.30;0.30;;;;;;;-8.08;100.00;100081.09;5109184;28;20982;-59
2024/01/11 06:54:40;;;;;;;0.10;0.10;;;;;;;-8.01;100.00;100073.78;5109170;28;20723;-59
2024/01/11 06:57:07;;;;;;;0.57;0.57;;;;;;;-8.02;100.00;100077.06;5109222;28;20450;-59
2024/01/11 06:59:35;;;;;;;0.13;0.13;;;;;;;-7.89;100.00;100069.84;5109328;28;20504;-60
2024/01/11 07:02:02;;;;;;;0.10;0.10;;;;;;;-7.80;100.00;100075.81;5109264;28;20447;-60
2024/01/11 07:04:29;;;;;;;0.43;0.43;;;;;;;-7.61;100.00;100072.00;5109216;28;20455;-60
2024/01/11 07:06:56;;;;;;;1.60;0.67;;;;;;;-7.31;100.00;100068.34;5109163;28;20446;-60
2024/01/11 07:09:23;;;;;;;0.17;0.17;;;;;;;-6.97;100.00;100071.34;5109121;28;20502;-59
2024/01/11 07:11:49;;;;;;;0.57;0.57;;;;;;;-6.55;100.00;100070.25;5108971;28;20993;-60
2024/01/11 07:14:16;;;;;;;0.50;0.50;;;;;;;-6.28;100.00;100065.63;5109164;28;20457;-60
2024/01/11 07:16:44;;;;;;;0.23;0.23;;;;;;;-5.84;100.00;100072.72;5108841;28;20458;-60
2024/01/11 07:19:11;;;;;;;0.20;0.20;;;;;;;-5.43;100.00;100079.72;5109269;28;20450;-60
2024/01/11 07:21:38;;;;;;;0.83;0.83;;;;;;;-4.97;100.00;100080.06;5108999;28;20451;-59
2024/01/11 07:24:06;;;;;;;1.07;0.77;;;;;;;-4.59;100.00;100082.78;5109319;28;20478;-59
2024/01/11 07:26:32;;;;;;;1.17;0.93;;;;;;;-4.20;100.00;100082.97;5108723;28;20495;-60
2024/01/11 07:28:59;;;;;;;0.20;0.20;;;;;;;-3.84;100.00;100088.88;5108706;28;20494;-61
2024/01/11 07:31:26;;;;;;;1.30;1.10;;;;;;;-3.64;100.00;100092.25;5108838;28;20447;-59
2024/01/11 07:33:54;;;;;;;1.27;0.77;;;;;;;-3.44;100.00;100093.13;5108974;28;20458;-60
2024/01/11 07:36:21;;;;;;;1.80;1.07;;;;;;;-3.70;100.00;100087.25;5108717;28;20450;-60
2024/01/11 07:38:48;;;;;;;0.40;0.40;;;;;;;-3.51;100.00;100093.97;5108908;28;20840;-60
2024/01/11 07:41:15;;;;;;;1.97;1.47;;;;;;;-3.41;100.00;100100.63;5108665;28;20471;-60
2024/01/11 07:43:43;;;;;;;1.07;1.03;;;;;;;-3.22;100.00;100100.66;5110067;28;20982;-60
2024/01/11 07:46:10;;;;;;;1.90;1.07;;;;;;;-3.05;100.00;100098.97;5112827;28;20486;-59
2024/01/11 07:48:37;;;;;;;0.67;0.67;;;;;;;-3.06;100.00;100087.28;5113232;28;20447;-59
2024/01/11 07:51:05;;;;;;;2.07;1.13;;;;;;;-3.02;100.00;100093.13;5112697;28;20497;-59
2024/01/11 07:53:32;;;;;;;1.77;0.57;;;;;;;-2.86;100.00;100083.94;5113020;28;20455;-59
2024/01/11 07:55:59;;;;;;;3.53;1.93;;;;;;;-2.74;100.00;100091.41;5112990;28;20447;-60
2024/01/11 07:58:26;;;;;;;0.50;0.50;;;;;;;-2.68;100.00;100098.91;5112373;28;20822;-60
2024/01/11 08:00:54;;;;;;;0.67;0.67;;;;;;;-2.90;100.00;100097.28;5112540;28;20872;-60
2024/01/11 08:03:21;;;;;;;1.27;1.13;;;;;;;-3.33;100.00;100089.81;5112831;28;20534;-60
2024/01/11 08:05:50;;;;;;;0.73;0.73;;;;;;;-3.20;100.00;100086.44;5112387;27;20454;-59
2024/01/11 08:08:18;;;;;;;3.00;1.30;;;;;;;-3.22;100.00;100088.13;5112806;28;20529;-59
2024/01/11 08:10:45;;;;;;;1.27;1.17;;;;;;;-3.16;100.00;100085.63;5112385;28;20489;-60
2024/01/11 08:13:13;;;;;;;0.60;0.60;;;;;;;-2.92;100.00;100094.78;5112712;28;20451;-60
2024/01/11 08:15:39;;;;;;;1.20;0.83;;;;;;;-2.69;100.00;100083.91;5112462;28;20482;-60
2024/01/11 08:18:06;;;;;;;0.63;0.63;;;;;;;-2.65;100.00;100078.88;5112166;28;20462;-60
2024/01/11 08:20:34;;;;;;;0.60;0.60;;;;;;;-2.44;100.00;100092.16;5112180;28;20450;-60
2024/01/11 08:23:01;;;;;;;0.93;0.90;;;;;;;-2.08;100.00;100084.50;5112419;28;20515;-60
2024/01/11 08:25:29;;;;;;;2.00;1.30;;;;;;;-1.90;99.89;100090.28;5112135;28;20571;-60
2024/01/11 08:27:56;;;;;;;1.03;1.03;;;;;;;-1.73;97.49;100073.47;5112310;28;20451;-60
2024/01/11 08:30:23;;;;;;;1.27;1.17;;;;;;;-1.61;97.59;100063.34;5111960;28;20516;-60
2024/01/11 08:32:49;;;;;;;1.37;1.23;;;;;;;-1.17;96.62;100064.66;5111880;28;20451;-60
2024/01/11 08:35:16;;;;;;;5.17;1.63;;;;;;;-0.93;92.98;100067.84;5112339;28;20443;-59
2024/01/11 08:37:43;;;;;;;1.40;1.30;;;;;;;-0.66;91.70;100055.84;5111755;28;20442;-60
2024/01/11 08:40:10;;;;;;;2.07;1.73;;;;;;;-0.26;90.18;100052.00;5111830;28;20960;-59
2024/01/11 08:42:41;;;;;;;2.03;1.43;;;;;;;-0.27;89.28;100052.84;5112002;28;20956;-60
2024/01/11 08:45:08;;;;;;;0.97;0.97;;;;;;;-0.20;87.54;100056.13;5111728;28;20201;-60
2024/01/11 08:47:35;;;;;;;2.53;2.00;;;;;;;0.01;85.46;100057.53;5111823;28;20209;-60
2024/01/11 08:50:05;;;;;;;4.73;2.13;;;;;;;0.29;83.60;100054.59;5111507;28;20745;-59
2024/01/11 08:52:32;;;;;;;2.90;1.83;;;;;;;0.72;82.30;100053.94;5111646;28;20200;-60
2024/01/11 08:54:59;;;;;;;1.17;0.90;;;;;;;0.99;80.23;100048.47;5110576;28;20208;-60
2024/01/11 08:57:27;;;;;;;1.87;1.43;;;;;;;1.02;76.64;100043.38;5111125;28;20210;-60
2024/01/11 08:59:55;;;;;;;1.27;1.20;;;;;;;0.83;77.16;100042.84;5111257;28;20266;-60
2024/01/11 09:02:22;;;;;;;3.57;2.53;;;;;;;0.05;78.25;100038.19;5111303;28;20262;-60
2024/01/11 09:04:49;;;;;;;3.60;2.17;;;;;;;-0.16;82.88;100036.81;5111640;28;20211;-60
2024/01/11 09:07:16;;;;;;;3.60;1.87;;;;;;;0.33;81.52;100031.91;5111251;28;20194;-60
2024/01/11 09:09:43;;;;;;;5.10;1.93;;;;;;;0.14;81.91;100021.28;5111248;28;20256;-60
2024/01/11 09:12:10;;;;;;;2.10;1.63;;;;;;;0.31;81.19;100032.78;5111244;28;20637;-60
2024/01/11 09:14:39;;;;;;;1.47;1.30;;;;;;;0.25;81.16;100023.66;5111240;28;20705;-60
2024/01/11 09:17:08;;;;;;;3.07;2.00;;;;;;;0.31;80.84;100023.56;5111352;28;20266;-60
2024/01/11 09:19:35;;;;;;;2.87;1.50;;;;;;;-0.09;82.93;100019.13;5111224;28;20662;-60
2024/01/11 09:22:01;;;;;;;2.93;2.17;;;;;;;0.26;81.99;100024.47;5111540;28;20617;-61
2024/01/11 09:24:29;;;;;;;3.10;1.77;;;;;;;0.47;79.94;100018.28;5111068;28;20258;-60
2024/01/11 09:26:56;;;;;;;5.10;2.07;;;;;;;0.76;79.11;100015.31;5111168;28;20757;-61
2024/01/11 09:29:22;;;;;;;4.10;1.87;;;;;;;0.73;78.87;100006.13;5111015;28;20603;-61
2024/01/11 09:31:49;;;;;;;1.53;1.30;;;;;;;0.53;79.98;100006.44;5111058;28;20204;-60
2024/01/11 09:34:18;;;;;;;2.80;2.00;;;;;;;1.09;78.78;99996.22;5110782;28;20197;-60
2024/01/11 09:36:45;;;;;;;7.13;1.97;;;;;;;1.39;75.83;99986.41;5110606;28;20193;-61
2024/01/11 09:39:13;;;;;;;1.23;1.13;;;;;;;1.86;74.51;99982.88;5110671;28;20588;-61
2024/01/11 09:41:44;;;;;;;8.30;1.83;;;;;;;2.06;69.20;99984.13;5110728;28;20202;-61
2024/01/11 09:44:11;;;;;;;2.27;1.63;;;;;;;2.35;68.79;99981.75;5110628;28;20237;-60
2024/01/11 09:46:38;;;;;;;2.10;1.50;;;;;;;2.36;67.92;99969.97;5110669;28;20200;-60
2024/01/11 09:49:06;;;;;;;2.40;1.77;;;;;;;2.79;66.75;99962.13;5110916;28;20204;-60
2024/01/11 09:51:37;;;;;;;1.67;1.17;;;;;;;2.80;66.16;99957.91;5110437;28;20723;-60
2024/01/11 09:54:04;;;;;;;5.37;3.27;;;;;;;3.53;64.09;99955.88;5110619;28;20666;-60
2024/01/11 09:56:32;;;;;;;6.23;2.27;;;;;;;3.76;61.73;99952.66;5110199;28;20225;-61
2024/01/11 09:58:58;;;;;;;3.97;1.87;;;;;;;4.25;60.71;99941.00;5110551;28;20655;-61
2024/01/11 10:01:26;;;;;;;7.10;2.10;;;;;;;3.73;58.53;99931.69;5110176;28;20193;-61
2024/01/11 10:03:54;;;;;;;4.17;2.67;;;;;;;3.74;60.23;99925.75;5110114;28;20198;-61
2024/01/11 10:06:22;;;;;;;1.70;1.40;;;;;;;4.10;58.42;99928.81;5109589;28;20587;-60
2024/01/11 10:08:51;;;;;;;3.87;2.10;;;;;;;4.10;58.90;99921.22;5109951;28;20208;-61
2024/01/11 10:11:18;;;;;;;4.83;2.00;;;;;;;4.15;58.87;99926.97;5110012;28;20225;-61
2024/01/11 10:13:45;;;;;;;3.13;2.07;;;;;;;4.42;57.21;99911.75;5110073;28;20212;-61
2024/01/11 10:16:13;;;;;;;5.00;2.30;;;;;;;4.24;57.96;99914.00;5109575;28;20310;-60
2024/01/11 10:18:40;;;;;;;3.73;2.07;;;;;;;4.58;57.26;99907.81;5110100;28;20204;-61
2024/01/11 10:21:07;;;;;;;4.03;2.00;;;;;;;4.68;56.80;99904.09;5109915;28;20212;-60
2024/01/11 10:23:34;;;;;;;4.70;2.40;;;;;;;5.18;55.26;99888.78;5109907;28;20705;-60
2024/01/11 10:26:03;;;;;;;8.07;2.73;;;;;;;5.49;54.76;99895.22;5109770;28;20201;-60
2024/01/11 10:28:30;;;;;;;3.73;2.40;;;;;;;4.78;55.09;99880.97;5109590;28;20705;-60
2024/01/11 10:30:57;;;;;;;1.87;1.70;;;;;;;5.10;54.45;99885.69;5109382;28;20232;-60
2024/01/11 10:33:24;;;;;;;4.70;2.80;;;;;;;5.62;54.98;99886.25;5109636;28;20209;-60
2024/01/11 10:35:51;;;;;;;4.33;2.03;;;;;;;5.58;52.94;99881.34;5109570;28;20591;-60
2024/01/11 10:38:19;;;;;;;3.70;1.97;;;;;;;5.05;53.92;99872.34;5109455;28;20666;-60
2024/01/11 10:40:46;;;;;;;5.80;2.27;;;;;;;5.58;53.79;99873.75;5109724;28;20249;-60
2024/01/11 10:43:22;;;;;;;4.50;2.57;;;;;;;5.71;53.44;99871.56;5109678;28;20205;-61
2024/01/11 10:45:53;;;;;;;3.97;2.37;;;;;;;5.80;53.04;99871.19;5109231;28;20690;-60
2024/01/11 10:48:22;;;;;;;5.60;2.43;;;;;;;5.80;53.11;99861.03;5109287;28;20200;-60
2024/01/11 10:50:55;;;;;;;7.17;2.73;;;;;;;5.58;52.40;99861.88;5109355;28;20228;-60
2024/01/11 10:53:29;;;;;;;4.83;2.93;;;;;;;5.17;53.89;99851.63;5109553;28;20571;-60
2024/01/11 10:55:58;;;;;;;5.57;2.73;;;;;;;5.36;53.09;99853.47;5109586;28;20637;-60
2024/01/11 10:58:27;;;;;;;7.00;2.87;;;;;;;5.71;52.24;99851.25;5109507;28;20193;-60
2024/01/11 11:00:56;;;;;;;4.97;2.60;;;;;;;5.67;52.90;99851.38;5109000;28;20606;-61
2024/01/11 11:03:24;;;;;;;4.37;2.70;;;;;;;5.39;52.58;99835.59;5109596;28;20644;-60
2024/01/11 11:05:55;;;;;;;3.90;2.37;;;;;;;5.07;53.78;99834.28;5109064;28;20254;-61
2024/01/11 11:08:24;;;;;;;3.70;1.93;;;;;;;4.29;54.05;99825.28;5109457;28;20215;-61
2024/01/11 11:10:55;;;;;;;4.17;2.30;;;;;;;3.94;53.46;99821.41;5109141;28;20229;-60
2024/01/11 11:13:23;;;;;;;4.47;2.33;;;;;;;4.05;53.81;99811.75;5109121;28;20197;-60
2024/01/11 11:15:52;;;;;;;3.13;2.20;;;;;;;3.92;53.83;99805.44;5108997;28;20605;-60
2024/01/11 11:18:20;;;;;;;4.77;1.97;;;;;;;3.79;53.25;99805.84;5108419;28;20585;-60
2024/01/11 11:20:47;;;;;;;4.00;1.73;;;;;;;3.61;53.97;99801.41;5108770;28;20581;-60
2024/01/11 11:23:17;;;;;;;2.20;1.37;;;;;;;3.63;53.55;99792.03;5109087;28;20216;-60